createdAt,value
2022-09-23T00:01:15.271Z,101219.78
2022-09-23T00:03:44.260Z,101216.13
2022-09-23T00:06:13.542Z,101215.97
2022-09-23T00:08:41.877Z,101214.50
2022-09-23T00:11:14.183Z,101218.34
2022-09-23T00:13:43.259Z,101221.19
2022-09-23T00:16:12.759Z,101218.84
2022-09-23T00:18:40.919Z,101211.97
2022-09-23T00:21:11.106Z,101221.09
2022-09-23T00:23:39.625Z,101210.53
2022-09-23T00:26:12.062Z,101215.44
2022-09-23T00:28:39.944Z,101213.75
2022-09-23T00:31:09.597Z,101213.28
2022-09-23T00:33:37.898Z,101208.38
2022-09-23T00:36:07.320Z,101214.03
2022-09-23T00:38:35.641Z,101201.72
2022-09-23T00:41:07.152Z,101213.81
2022-09-23T00:43:39.754Z,101215.16
2022-09-23T00:46:09.438Z,101210.38
2022-09-23T00:48:39.813Z,101209.16
2022-09-23T00:51:09.339Z,101210.28
2022-09-23T00:53:37.405Z,101224.22
2022-09-23T00:56:08.431Z,101220.06
2022-09-23T00:58:38.189Z,101221.78
2022-09-23T01:01:06.817Z,101223.25
2022-09-23T01:03:34.962Z,101222.22
2022-09-23T01:06:03.119Z,101233.28
2022-09-23T01:08:32.267Z,101226.75
2022-09-23T01:11:07.140Z,101234.44
2022-09-23T01:13:50.610Z,101231.91
2022-09-23T01:16:23.647Z,101226.81
2022-09-23T01:18:51.625Z,101225.16
2022-09-23T01:21:22.497Z,101222.41
2022-09-23T01:24:09.550Z,101237.59
2022-09-23T01:27:00.239Z,101239.56
2022-09-23T01:29:30.945Z,101238.50
2022-09-23T01:31:58.840Z,101236.59
2022-09-23T01:34:33.390Z,101241.91
2022-09-23T01:37:10.508Z,101239.34
2022-09-23T01:39:41.400Z,101236.78
2022-09-23T01:42:09.499Z,101254.38
2022-09-23T01:44:44.104Z,101242.66
2022-09-23T01:47:16.745Z,101245.06
2022-09-23T01:50:26.013Z,101245.47
2022-09-23T01:52:56.442Z,101252.06
2022-09-23T01:55:28.516Z,101256.94
2022-09-23T01:58:06.185Z,101259.47
2022-09-23T02:00:36.920Z,101262.72
2022-09-23T02:03:16.759Z,101255.34
2022-09-23T02:05:48.732Z,101258.78
2022-09-23T02:08:20.401Z,101263.88
2022-09-23T02:10:50.505Z,101255.34
2022-09-23T02:13:25.713Z,101261.03
2022-09-23T02:15:56.590Z,101259.72
2022-09-23T02:18:29.704Z,101262.81
2022-09-23T02:21:01.384Z,101267.66
2022-09-23T02:23:33.338Z,101266.31
2022-09-23T02:26:08.420Z,101260.56
2022-09-23T02:28:42.352Z,101260.88
2022-09-23T02:31:16.265Z,101253.72
2022-09-23T02:34:07.345Z,101262.88
2022-09-23T02:36:41.659Z,101269.72
2022-09-23T02:39:12.748Z,101269.25
2022-09-23T02:41:59.280Z,101277.72
2022-09-23T02:44:29.070Z,101280.78
2022-09-23T02:46:57.833Z,101283.66
2022-09-23T02:49:30.496Z,101282.88
2022-09-23T02:52:01.238Z,101292.00
2022-09-23T02:54:30.340Z,101289.59
2022-09-23T02:56:59.145Z,101289.72
2022-09-23T02:59:27.140Z,101291.72
2022-09-23T03:01:57.905Z,101293.66
2022-09-23T03:04:32.585Z,101297.38
2022-09-23T03:07:03.468Z,101298.47
2022-09-23T03:09:35.115Z,101296.63
2022-09-23T03:12:16.590Z,101302.13
2022-09-23T03:15:04.590Z,101300.47
2022-09-23T03:17:44.744Z,101296.06
2022-09-23T03:20:35.245Z,101300.66
2022-09-23T03:23:07.625Z,101293.75
2022-09-23T03:25:37.864Z,101302.84
2022-09-23T03:28:06.640Z,101308.25
2022-09-23T03:30:37.664Z,101307.56
2022-09-23T03:33:07.139Z,101309.38
2022-09-23T03:35:59.941Z,101307.66
2022-09-23T03:38:31.300Z,101323.97
2022-09-23T03:41:00.664Z,101319.72
2022-09-23T03:43:30.012Z,101324.25
2022-09-23T03:45:58.748Z,101331.47
2022-09-23T03:48:26.819Z,101333.19
2022-09-23T03:50:54.724Z,101339.34
2022-09-23T03:53:23.079Z,101340.31
2022-09-23T03:55:51.104Z,101340.31
2022-09-23T03:58:18.984Z,101352.81
2022-09-23T04:00:47.614Z,101350.28
2022-09-23T04:03:15.629Z,101347.72
2022-09-23T04:05:43.948Z,101347.81
2022-09-23T04:08:11.959Z,101354.22
2022-09-23T04:10:41.875Z,101358.91
2022-09-23T04:13:10.506Z,101353.72
2022-09-23T04:15:38.559Z,101347.66
2022-09-23T04:18:06.506Z,101353.03
2022-09-23T04:20:34.460Z,101363.97
2022-09-23T04:23:02.346Z,101366.88
2022-09-23T04:25:30.324Z,101359.91
2022-09-23T04:27:58.514Z,101368.13
2022-09-23T04:30:26.504Z,101363.13
2022-09-23T04:32:54.518Z,101364.34
2022-09-23T04:35:22.485Z,101353.25
2022-09-23T04:37:50.504Z,101355.50
2022-09-23T04:40:18.527Z,101359.47
2022-09-23T04:42:46.487Z,101355.44
2022-09-23T04:45:14.419Z,101350.41
2022-09-23T04:47:42.342Z,101356.03
2022-09-23T04:50:10.659Z,101357.22
2022-09-23T04:52:38.620Z,101355.75
2022-09-23T04:55:11.111Z,101358.78
2022-09-23T04:57:39.619Z,101350.88
2022-09-23T05:00:07.944Z,101357.41
2022-09-23T05:02:36.519Z,101349.72
2022-09-23T05:05:04.888Z,101357.19
2022-09-23T05:07:32.745Z,101348.50
2022-09-23T05:10:00.593Z,101353.31
2022-09-23T05:12:28.436Z,101352.72
2022-09-23T05:14:56.901Z,101349.41
2022-09-23T05:17:24.910Z,101349.84
2022-09-23T05:19:52.904Z,101349.28
2022-09-23T05:22:21.059Z,101345.00
2022-09-23T05:24:48.913Z,101349.53
2022-09-23T05:27:16.745Z,101354.97
2022-09-23T05:29:45.079Z,101355.13
2022-09-23T05:32:12.917Z,101347.41
2022-09-23T05:34:40.748Z,101347.81
2022-09-23T05:37:08.740Z,101347.13
2022-09-23T05:39:36.720Z,101348.28
2022-09-23T05:42:05.037Z,101348.47
2022-09-23T05:44:33.081Z,101341.59
2022-09-23T05:47:01.089Z,101340.03
2022-09-23T05:49:48.287Z,101348.22
2022-09-23T05:52:18.220Z,101342.19
2022-09-23T05:54:46.134Z,101340.50
2022-09-23T05:57:14.153Z,101344.31
2022-09-23T05:59:43.480Z,101333.97
2022-09-23T06:02:11.475Z,101340.44
2022-09-23T06:04:39.409Z,101340.59
2022-09-23T06:07:07.372Z,101346.19
2022-09-23T06:09:36.789Z,101344.66
2022-09-23T06:12:05.706Z,101351.06
2022-09-23T06:14:33.533Z,101350.25
2022-09-23T06:17:01.539Z,101347.75
2022-09-23T06:19:29.538Z,101348.75
2022-09-23T06:21:57.399Z,101348.03
2022-09-23T06:24:30.859Z,101348.91
2022-09-23T06:26:59.440Z,101336.59
2022-09-23T06:29:27.405Z,101338.56
2022-09-23T06:31:55.343Z,101337.91
2022-09-23T06:34:23.305Z,101335.47
2022-09-23T06:36:52.583Z,101342.69
2022-09-23T06:39:20.426Z,101348.22
2022-09-23T06:41:48.559Z,101338.66
2022-09-23T06:44:16.579Z,101334.44
2022-09-23T06:46:44.906Z,101342.66
2022-09-23T06:49:14.233Z,101334.91
2022-09-23T06:51:42.495Z,101335.03
2022-09-23T06:54:11.947Z,101340.38
2022-09-23T06:56:40.587Z,101335.03
2022-09-23T06:59:10.953Z,101338.66
2022-09-23T07:01:39.326Z,101332.47
2022-09-23T07:04:08.391Z,101335.09
2022-09-23T07:06:36.422Z,101338.00
2022-09-23T07:09:05.023Z,101327.50
2022-09-23T07:11:33.061Z,101331.09
2022-09-23T07:14:01.062Z,101323.16
2022-09-23T07:16:29.109Z,101317.06
2022-09-23T07:18:57.219Z,101327.06
2022-09-23T07:21:25.218Z,101325.31
2022-09-23T07:23:53.068Z,101324.59
2022-09-23T07:26:21.544Z,101323.94
2022-09-23T07:28:49.549Z,101321.41
2022-09-23T07:31:29.633Z,101325.06
2022-09-23T07:34:03.440Z,101318.81
2022-09-23T07:36:36.181Z,101312.72
2022-09-23T07:39:04.560Z,101318.19
2022-09-23T07:41:33.140Z,101316.59
2022-09-23T07:44:04.001Z,101309.66
2022-09-23T07:46:32.976Z,101308.94
2022-09-23T07:49:04.235Z,101313.44
2022-09-23T07:51:36.407Z,101315.38
2022-09-23T07:54:08.965Z,101311.09
2022-09-23T07:56:37.865Z,101306.72
2022-09-23T07:59:06.600Z,101315.69
2022-09-23T08:01:36.760Z,101318.47
2022-09-23T08:04:06.666Z,101313.97
2022-09-23T08:06:35.139Z,101315.84
2022-09-23T08:09:03.342Z,101310.50
2022-09-23T08:11:32.260Z,101312.44
2022-09-23T08:14:00.120Z,101314.38
2022-09-23T08:16:28.148Z,101312.72
2022-09-23T08:18:56.115Z,101316.31
2022-09-23T08:21:26.459Z,101314.50
2022-09-23T08:23:54.344Z,101310.25
2022-09-23T08:26:22.628Z,101312.09
2022-09-23T08:28:54.724Z,101306.09
2022-09-23T08:31:23.724Z,101316.06
2022-09-23T08:33:56.763Z,101314.44
2022-09-23T08:36:25.239Z,101306.63
2022-09-23T08:38:53.161Z,101312.97
2022-09-23T08:41:28.902Z,101311.22
2022-09-23T08:43:59.177Z,101312.22
2022-09-23T08:46:29.392Z,101322.13
2022-09-23T08:48:57.820Z,101315.09
2022-09-23T08:51:32.110Z,101314.28
2022-09-23T08:54:01.064Z,101321.50
2022-09-23T08:56:30.031Z,101313.47
2022-09-23T08:59:10.411Z,101308.28
2022-09-23T09:01:43.230Z,101302.25
2022-09-23T09:04:28.419Z,101307.72
2022-09-23T09:07:32.207Z,101311.47
2022-09-23T09:10:04.071Z,101304.47
2022-09-23T09:12:35.120Z,101309.06
2022-09-23T09:15:08.422Z,101317.06
2022-09-23T09:17:39.153Z,101315.38
2022-09-23T09:20:21.039Z,101319.84
2022-09-23T09:22:58.342Z,101314.50
2022-09-23T09:25:28.720Z,101318.91
2022-09-23T09:27:59.439Z,101318.13
2022-09-23T09:30:29.184Z,101321.78
2022-09-23T09:33:03.469Z,101321.00
2022-09-23T09:35:38.659Z,101314.88
2022-09-23T09:38:09.319Z,101326.63
2022-09-23T09:40:44.025Z,101317.91
2022-09-23T09:43:12.104Z,101314.59
2022-09-23T09:46:05.381Z,101313.72
2022-09-23T09:48:39.478Z,101301.38
2022-09-23T09:51:19.749Z,101307.69
2022-09-23T09:53:47.729Z,101302.38
2022-09-23T09:56:17.393Z,101304.16
2022-09-23T09:58:47.892Z,101310.44
2022-09-23T10:01:29.845Z,101303.38
2022-09-23T10:03:59.567Z,101304.34
2022-09-23T10:06:33.910Z,101301.69
2022-09-23T10:09:20.205Z,101306.16
2022-09-23T10:12:05.383Z,101307.09
2022-09-23T10:14:33.322Z,101291.25
2022-09-23T10:17:06.467Z,101289.56
2022-09-23T10:19:36.957Z,101291.44
2022-09-23T10:22:06.536Z,101289.72
2022-09-23T10:24:37.965Z,101291.56
2022-09-23T10:27:10.575Z,101291.69
2022-09-23T10:29:40.202Z,101286.47
2022-09-23T10:32:31.097Z,101292.78
2022-09-23T10:34:59.079Z,101283.97
2022-09-23T10:37:35.025Z,101276.16
2022-09-23T10:40:31.278Z,101281.59
2022-09-23T10:43:36.083Z,101285.28
2022-09-23T10:46:25.147Z,101282.75
2022-09-23T10:48:53.014Z,101274.00
2022-09-23T10:51:28.373Z,101275.91
2022-09-23T10:54:07.096Z,101275.13
2022-09-23T10:56:44.218Z,101273.50
2022-09-23T10:59:41.175Z,101278.03
2022-09-23T11:02:28.986Z,101284.28
2022-09-23T11:05:16.218Z,101280.69
2022-09-23T11:07:53.454Z,101274.63
2022-09-23T11:10:35.205Z,101275.56
2022-09-23T11:13:15.421Z,101278.38
2022-09-23T11:15:55.915Z,101281.22
2022-09-23T11:18:23.767Z,101277.69
2022-09-23T11:21:07.597Z,101288.47
2022-09-23T11:23:44.881Z,101285.88
2022-09-23T11:26:33.393Z,101276.16
2022-09-23T11:29:04.564Z,101283.31
2022-09-23T11:31:38.474Z,101281.59
2022-09-23T11:34:21.187Z,101280.91
2022-09-23T11:36:55.112Z,101286.41
2022-09-23T11:39:37.146Z,101276.84
2022-09-23T11:42:10.530Z,101284.97
2022-09-23T11:44:42.149Z,101280.72
2022-09-23T11:47:09.975Z,101285.25
2022-09-23T11:49:47.425Z,101284.25
2022-09-23T11:52:22.796Z,101282.66
2022-09-23T11:54:55.525Z,101283.56
2022-09-23T11:57:44.964Z,101277.53
2022-09-23T12:00:16.848Z,101280.25
2022-09-23T12:03:05.990Z,101279.44
2022-09-23T12:05:40.828Z,101277.66
2022-09-23T12:08:24.709Z,101277.69
2022-09-23T12:10:52.709Z,101277.91
2022-09-23T12:13:41.637Z,101276.25
2022-09-23T12:16:27.304Z,101279.00
2022-09-23T12:19:01.991Z,101283.41
2022-09-23T12:24:44.233Z,101294.28
2022-09-23T12:27:23.916Z,101291.78
2022-09-23T12:30:02.325Z,101303.41
2022-09-23T12:32:31.278Z,101290.22
2022-09-23T12:35:01.133Z,101296.44
2022-09-23T12:37:33.043Z,101294.75
2022-09-23T12:40:06.227Z,101287.69
2022-09-23T12:42:34.594Z,101291.22
2022-09-23T12:45:35.563Z,101286.84
2022-09-23T12:48:05.359Z,101285.97
2022-09-23T12:50:52.242Z,101286.91
2022-09-23T12:53:35.614Z,101283.47
2022-09-23T12:56:15.761Z,101296.84
2022-09-23T12:58:44.535Z,101292.47
2022-09-23T13:01:15.774Z,101294.28
2022-09-23T13:04:05.775Z,101289.09
2022-09-23T13:06:46.458Z,101289.25
2022-09-23T13:09:16.563Z,101296.38
2022-09-23T13:11:46.317Z,101289.25
2022-09-23T13:14:16.878Z,101282.19
2022-09-23T13:16:46.600Z,101292.03
2022-09-23T13:19:26.821Z,101303.72
2022-09-23T13:21:54.797Z,101302.88
2022-09-23T13:24:32.018Z,101304.72
2022-09-23T13:27:02.963Z,101300.34
2022-09-23T13:29:43.608Z,101308.41
2022-09-23T13:32:16.107Z,101308.47
2022-09-23T13:34:45.204Z,101308.63
2022-09-23T13:37:23.059Z,101306.88
2022-09-23T13:39:51.429Z,101306.91
2022-09-23T13:42:28.263Z,101305.13
2022-09-23T13:44:58.495Z,101304.25
2022-09-23T13:47:28.519Z,101302.50
2022-09-23T13:49:56.739Z,101306.09
2022-09-23T13:52:27.458Z,101308.78
2022-09-23T13:54:55.580Z,101307.97
2022-09-23T13:57:33.931Z,101308.91
2022-09-23T14:00:02.969Z,101312.53
2022-09-23T14:02:31.226Z,101309.88
2022-09-23T14:04:59.948Z,101305.53
2022-09-23T14:07:28.042Z,101310.00
2022-09-23T14:09:56.892Z,101318.84
2022-09-23T14:12:24.842Z,101318.84
2022-09-23T14:14:55.324Z,101323.22
2022-09-23T14:17:26.328Z,101324.16
2022-09-23T14:19:54.329Z,101323.22
2022-09-23T14:22:26.524Z,101319.63
2022-09-23T14:24:55.450Z,101318.63
2022-09-23T14:27:29.484Z,101328.34
2022-09-23T14:29:57.530Z,101325.53
2022-09-23T14:32:28.411Z,101325.44
2022-09-23T14:35:07.626Z,101324.47
2022-09-23T14:38:03.787Z,101333.28
2022-09-23T14:40:51.901Z,101323.38
2022-09-23T14:43:30.178Z,101321.50
2022-09-23T14:45:59.352Z,101324.88
2022-09-23T14:48:27.427Z,101316.75
2022-09-23T14:51:02.653Z,101321.91
2022-09-23T14:53:38.654Z,101323.53
2022-09-23T14:56:09.702Z,101326.84
2022-09-23T14:58:49.505Z,101330.25
2022-09-23T15:01:25.714Z,101331.81
2022-09-23T15:03:54.651Z,101336.00
2022-09-23T15:06:24.280Z,101337.41
2022-09-23T15:08:53.095Z,101338.88
2022-09-23T15:11:22.792Z,101341.22
2022-09-23T15:13:53.690Z,101339.09
2022-09-23T15:16:27.348Z,101340.50
2022-09-23T15:18:57.061Z,101337.41
2022-09-23T15:21:25.991Z,101338.72
2022-09-23T15:23:55.959Z,101330.22
2022-09-23T15:26:24.896Z,101343.00
2022-09-23T15:28:56.897Z,101344.19
2022-09-23T15:31:28.149Z,101333.91
2022-09-23T15:33:56.914Z,101334.47
2022-09-23T15:36:29.481Z,101335.91
2022-09-23T15:39:02.454Z,101339.00
2022-09-23T15:41:30.989Z,101340.47
2022-09-23T15:43:59.219Z,101346.38
2022-09-23T15:46:29.132Z,101340.72
2022-09-23T15:49:02.326Z,101345.69
2022-09-23T15:51:30.361Z,101353.25
2022-09-23T15:53:58.721Z,101347.53
2022-09-23T15:56:28.055Z,101349.69
2022-09-23T15:58:55.949Z,101359.75
2022-09-23T16:01:32.405Z,101363.84
2022-09-23T16:04:02.421Z,101363.41
2022-09-23T16:06:30.497Z,101359.41
2022-09-23T16:08:58.533Z,101360.81
2022-09-23T16:11:28.584Z,101362.78
2022-09-23T16:13:56.538Z,101352.38
2022-09-23T16:16:24.580Z,101358.19
2022-09-23T16:18:52.446Z,101361.31
2022-09-23T16:21:22.360Z,101367.97
2022-09-23T16:23:50.983Z,101359.44
2022-09-23T16:26:23.638Z,101361.50
2022-09-23T16:28:52.743Z,101362.78
2022-09-23T16:31:21.257Z,101359.75
2022-09-23T16:33:52.239Z,101368.41
2022-09-23T16:36:29.814Z,101369.81
2022-09-23T16:38:57.863Z,101368.50
2022-09-23T16:41:35.145Z,101370.72
2022-09-23T16:44:05.385Z,101369.34
2022-09-23T16:46:33.439Z,101367.06
2022-09-23T16:49:01.906Z,101365.56
2022-09-23T16:51:31.304Z,101359.63
2022-09-23T16:54:00.280Z,101371.31
2022-09-23T16:56:29.422Z,101371.50
2022-09-23T16:58:57.552Z,101372.56
2022-09-23T17:01:45.145Z,101372.94
2022-09-23T17:04:14.457Z,101371.44
2022-09-23T17:06:50.939Z,101376.13
2022-09-23T17:09:20.902Z,101372.16
2022-09-23T17:11:53.983Z,101380.63
2022-09-23T17:14:22.022Z,101368.34
2022-09-23T17:16:50.055Z,101368.84
2022-09-23T17:19:18.020Z,101372.06
2022-09-23T17:21:45.885Z,101373.44
2022-09-23T17:24:13.861Z,101375.69
2022-09-23T17:26:41.818Z,101374.22
2022-09-23T17:29:10.823Z,101375.53
2022-09-23T17:31:40.297Z,101370.19
2022-09-23T17:34:08.196Z,101366.84
2022-09-23T17:36:36.109Z,101362.66
2022-09-23T17:39:03.967Z,101362.88
2022-09-23T17:41:31.870Z,101361.34
2022-09-23T17:44:01.405Z,101354.44
2022-09-23T17:46:31.111Z,101353.50
2022-09-23T17:48:59.124Z,101351.22
2022-09-23T17:51:27.125Z,101348.69
2022-09-23T17:53:55.119Z,101344.16
2022-09-23T17:56:27.282Z,101345.19
2022-09-23T17:58:55.470Z,101338.25
2022-09-23T18:01:25.235Z,101331.75
2022-09-23T18:03:56.308Z,101326.13
2022-09-23T18:06:25.320Z,101321.09
2022-09-23T18:08:53.363Z,101326.19
2022-09-23T18:11:25.584Z,101320.56
2022-09-23T18:13:54.940Z,101312.63
2022-09-23T18:16:24.625Z,101318.00
2022-09-23T18:18:56.700Z,101309.09
2022-09-23T18:21:26.509Z,101309.03
2022-09-23T18:23:59.856Z,101307.41
2022-09-23T18:26:35.180Z,101306.63
2022-09-23T18:29:03.488Z,101306.75
2022-09-23T18:31:36.182Z,101298.94
2022-09-23T18:34:05.914Z,101292.53
2022-09-23T18:36:34.807Z,101289.72
2022-09-23T18:39:02.825Z,101278.25
2022-09-23T18:41:30.990Z,101277.56
2022-09-23T18:43:59.150Z,101279.50
2022-09-23T18:46:29.865Z,101277.47
2022-09-23T18:49:16.591Z,101272.31
2022-09-23T18:51:55.150Z,101272.59
2022-09-23T18:54:23.630Z,101271.19
2022-09-23T18:56:53.543Z,101266.50
2022-09-23T18:59:24.701Z,101267.28
2022-09-23T19:01:52.832Z,101265.09
2022-09-23T19:04:21.663Z,101261.19
2022-09-23T19:06:50.686Z,101256.88
2022-09-23T19:09:19.820Z,101255.88
2022-09-23T19:11:47.784Z,101251.22
2022-09-23T19:14:15.779Z,101245.91
2022-09-23T19:16:43.793Z,101239.84
2022-09-23T19:19:11.919Z,101243.13
2022-09-23T19:21:39.850Z,101240.69
2022-09-23T19:24:08.544Z,101239.78
2022-09-23T19:26:38.397Z,101230.00
2022-09-23T19:29:09.078Z,101232.81
2022-09-23T19:31:41.392Z,101227.75
2022-09-23T19:34:13.246Z,101230.25
2022-09-23T19:36:43.624Z,101222.94
2022-09-23T19:39:22.643Z,101223.09
2022-09-23T19:41:51.304Z,101218.88
2022-09-23T19:44:20.820Z,101210.81
2022-09-23T19:46:55.721Z,101212.84
2022-09-23T19:49:25.554Z,101209.16
2022-09-23T19:51:56.433Z,101213.28
2022-09-23T19:54:27.675Z,101208.75
2022-09-23T19:56:56.063Z,101196.72
2022-09-23T19:59:24.079Z,101195.19
2022-09-23T20:01:51.979Z,101188.03
2022-09-23T20:04:19.874Z,101189.94
2022-09-23T20:06:50.504Z,101179.81
2022-09-23T20:09:18.524Z,101180.97
2022-09-23T20:11:46.473Z,101176.06
2022-09-23T20:14:14.749Z,101175.63
2022-09-23T20:16:42.888Z,101175.63
2022-09-23T20:19:10.818Z,101175.91
2022-09-23T20:21:38.979Z,101172.78
2022-09-23T20:24:08.055Z,101170.88
2022-09-23T20:26:54.802Z,101173.31
2022-09-23T20:29:24.938Z,101168.69
2022-09-23T20:31:52.851Z,101167.25
2022-09-23T20:34:22.115Z,101161.75
2022-09-23T20:36:50.018Z,101160.56
2022-09-23T20:39:17.958Z,101148.47
2022-09-23T20:41:45.864Z,101148.19
2022-09-23T20:44:13.894Z,101139.94
2022-09-23T20:46:47.916Z,101135.44
2022-09-23T20:49:17.676Z,101136.38
2022-09-23T20:51:45.818Z,101135.59
2022-09-23T20:54:13.704Z,101125.81
2022-09-23T20:56:41.678Z,101128.06
2022-09-23T20:59:10.504Z,101130.94
2022-09-23T21:01:38.433Z,101125.22
2022-09-23T21:04:06.706Z,101118.25
2022-09-23T21:06:37.873Z,101125.44
2022-09-23T21:09:06.981Z,101113.78
2022-09-23T21:11:35.426Z,101102.28
2022-09-23T21:14:03.599Z,101108.59
2022-09-23T21:16:31.881Z,101102.66
2022-09-23T21:19:00.423Z,101091.28
2022-09-23T21:21:28.428Z,101090.88
2022-09-23T21:24:07.075Z,101075.81
2022-09-23T21:26:48.113Z,101073.63
2022-09-23T21:29:16.108Z,101067.72
2022-09-23T21:31:44.076Z,101064.19
2022-09-23T21:34:12.597Z,101062.63
2022-09-23T21:36:43.778Z,101069.66
2022-09-23T21:39:12.398Z,101064.66
2022-09-23T21:41:41.063Z,101055.97
2022-09-23T21:44:09.359Z,101052.53
2022-09-23T21:46:37.547Z,101051.28
2022-09-23T21:49:05.863Z,101049.72
2022-09-23T21:51:41.445Z,101049.72
2022-09-23T21:54:12.910Z,101043.47
2022-09-23T21:56:40.904Z,101048.25
2022-09-23T21:59:09.064Z,101047.03
2022-09-23T22:01:40.063Z,101040.66
2022-09-23T22:04:14.219Z,101044.41
2022-09-23T22:06:42.508Z,101047.97
2022-09-23T22:09:13.076Z,101047.13
2022-09-23T22:12:00.146Z,101042.84
2022-09-23T22:14:28.219Z,101039.75
2022-09-23T22:16:58.360Z,101033.03
2022-09-23T22:19:27.763Z,101035.59
2022-09-23T22:21:57.058Z,101038.53
2022-09-23T22:24:25.058Z,101042.31
2022-09-23T22:26:53.018Z,101029.84
2022-09-23T22:29:39.623Z,101034.09
2022-09-23T22:32:29.545Z,101019.63
2022-09-23T22:34:58.177Z,101027.81
2022-09-23T22:37:28.118Z,101018.59
2022-09-23T22:39:56.104Z,101017.66
2022-09-23T22:42:24.150Z,101018.84
2022-09-23T22:44:52.114Z,101020.59
2022-09-23T22:47:21.019Z,101024.06
2022-09-23T22:49:49.397Z,101013.19
2022-09-23T22:52:21.878Z,101013.56
2022-09-23T22:54:49.863Z,101005.81
2022-09-23T22:57:18.018Z,101007.00
2022-09-23T22:59:48.922Z,101015.13
2022-09-23T23:02:18.803Z,101012.47
2022-09-23T23:04:50.293Z,101014.84
2022-09-23T23:07:21.865Z,101006.25
2022-09-23T23:09:53.394Z,101013.19
2022-09-23T23:12:21.596Z,101015.00
2022-09-23T23:14:50.270Z,101002.63
2022-09-23T23:17:18.350Z,101001.72
2022-09-23T23:19:46.299Z,101010.53
2022-09-23T23:22:14.200Z,101004.88
2022-09-23T23:24:42.147Z,101004.81
2022-09-23T23:27:10.143Z,101004.59
2022-09-23T23:29:38.073Z,101001.34
2022-09-23T23:32:06.973Z,101000.09
2022-09-23T23:34:34.989Z,101001.13
2022-09-23T23:37:02.978Z,100994.81
2022-09-23T23:39:31.497Z,100996.81
2022-09-23T23:41:59.477Z,100996.41
2022-09-23T23:44:27.942Z,100989.72
2022-09-23T23:46:56.019Z,100988.31
2022-09-23T23:49:24.085Z,100983.25
2022-09-23T23:51:52.078Z,100989.56
2022-09-23T23:54:20.104Z,100983.25
2022-09-23T23:56:48.116Z,100989.03
2022-09-23T23:59:16.281Z,100989.34
